CST,Max TemperatureF,Mean TemperatureF,Min TemperatureF,Max Dew PointF,MeanDew PointF,Min DewpointF,Max Humidity, Mean Humidity, Min Humidity, Max Sea Level PressureIn, Mean Sea Level PressureIn, Min Sea Level PressureIn, Max VisibilityMiles, Mean VisibilityMiles, Min VisibilityMiles, Max Wind SpeedMPH, Mean Wind SpeedMPH, Max Gust SpeedMPH,PrecipitationIn, CloudCover, Events, WindDirDegrees
2012-12-1,48,40,33,43,37,32,100,92,76,30.00,29.81,29.70,10,5,1,15,8,25,0.00,5,,180
2012-12-2,51,38,24,43,34,25,100,89,58,29.97,29.86,29.70,10,5,0,13,4,20,0.00,1,Fog,147
2012-12-3,53,47,41,52,40,27,100,79,53,29.94,29.69,29.54,10,7,1,23,10,29,0.00,3,,229
2012-12-4,42,30,17,28,17,12,80,64,47,30.38,30.19,29.95,10,10,10,15,10,20,0.00,0,,308
2012-12-5,42,28,15,30,18,12,86,63,48,30.39,30.10,29.78,10,10,10,21,10,28,0.00,2,,132
2012-12-6,46,35,24,36,28,21,86,68,53,30.00,29.86,29.74,10,10,10,17,8,23,0.00,2,Rain,281
2012-12-7,30,26,21,28,25,19,100,93,80,30.06,30.02,30.00,10,6,2,8,3,,0.00,4,Snow,4
2012-12-8,30,27,24,30,26,23,100,99,93,30.04,30.00,29.95,10,6,1,14,4,18,0.00,7,Snow,115
2012-12-9,30,21,12,30,26,9,100,98,85,29.98,29.90,29.82,10,3,0,23,14,29,0.00,8,Snow,45
2012-12-10,10,4,-2,9,0,-6,92,85,72,29.99,29.91,29.79,10,10,5,15,8,20,0.00,3,Snow,304
2012-12-11,19,10,1,16,9,0,100,91,79,29.96,29.85,29.77,10,9,2,10,2,,0.00,5,Snow,261
2012-12-12,35,19,3,28,21,1,100,89,70,29.96,29.85,29.79,10,9,7,10,4,,0.00,1,,137
2012-12-13,30,22,15,27,21,16,100,95,80,30.11,29.99,29.87,10,7,0,9,2,,0.00,0,Fog,2
2012-12-14,37,24,12,34,23,12,100,94,81,30.11,29.95,29.73,10,6,0,15,5,,0.00,1,Fog,105
2012-12-15,37,35,33,36,35,34,100,98,87,29.73,29.58,29.49,10,4,0,13,8,17,0.00,8,Rain-Snow,40
2012-12-16,32,24,15,32,21,16,100,98,93,29.81,29.73,29.59,10,8,2,16,10,22,0.00,8,,320
2012-12-17,23,21,19,23,21,19,100,100,93,29.79,29.73,29.67,10,4,0,6,2,,0.00,8,Fog-Snow,86
2012-12-18,28,26,24,28,25,25,100,100,100,29.79,29.68,29.61,5,3,1,8,5,,0.00,8,Snow,121
2012-12-19,30,22,14,28,21,12,100,94,80,30.04,29.93,29.80,10,9,2,12,3,,0.00,2,,272
2012-12-20,21,14,8,21,15,5,100,92,79,30.10,29.98,29.93,10,9,5,22,13,28,0.00,4,,330
2012-12-21,14,8,1,7,3,0,100,87,73,30.27,30.20,30.10,10,10,10,16,7,21,0.00,0,,303
2012-12-22,21,12,3,16,11,1,100,85,74,30.14,30.02,29.96,10,10,7,12,5,,0.00,1,,330
2012-12-23,15,12,8,14,9,7,100,85,73,30.13,30.08,30.01,10,10,7,12,8,16,0.00,3,,32
2012-12-24,15,8,0,12,5,-6,93,83,67,30.29,30.12,30.01,10,9,3,18,8,18,0.00,3,Snow,338
2012-12-25,6,0,-7,0,-6,-9,92,83,72,30.47,30.42,30.29,10,10,10,9,6,,0.00,0,,306
2012-12-26,12,6,0,5,1,-4,92,81,67,30.39,30.29,30.22,10,10,10,5,1,,0.00,3,,7
2012-12-27,17,10,3,18,11,1,100,90,73,30.23,30.18,30.13,10,7,2,7,2,,0.00,7,Snow,80
2012-12-28,21,14,8,18,15,9,100,96,86,30.12,30.05,30.01,10,8,2,8,3,,0.00,6,Snow,3
2012-12-29,12,6,-2,12,7,-6,100,95,85,30.14,30.08,30.03,10,8,2,7,4,,0.00,5,Snow,264
2012-12-30,21,8,-4,18,8,-6,100,90,80,30.15,30.00,29.86,10,10,7,17,3,23,0.00,0,,183
2012-12-31,15,5,-5,14,1,-8,93,76,67,30.25,30.17,30.01,10,10,10,20,11,26,0.00,1,Snow,313